Time;durP1;ratioP1;P1;durP2;ratioP2;P2;SDS_P1;SDS_P2;PMS_P1;PMS_P2;Temp;Humidity;BMP_temperature;BMP_pressure;BME280_temperature;BME280_humidity;BME280_pressure;Samples;Min_cycle;Max_cycle;Signal;HPM_P1;HPM_P2
2021/12/19 00:17:26;;;;;;;7.72;5.75;;;;;;;;;;21087035;28;20044;-59
2021/12/19 00:27:30;;;;;;;9.13;6.97;;;;;;;;;;21069434;28;20048;-62
2021/12/19 00:37:32;;;;;;;13.50;6.95;;;;;;;;;;21086083;28;20055;-59
2021/12/19 00:47:35;;;;;;;8.07;5.78;;;;;;;;;;21084999;28;20430;-57
2021/12/19 00:57:42;;;;;;;9.50;6.30;;;;;;;;;;21083896;28;20135;-56
2021/12/19 01:07:43;;;;;;;10.48;6.25;;;;;;;;;;21082813;28;20433;-59
2021/12/19 01:17:45;;;;;;;7.72;5.55;;;;;;;;;;21048310;28;20112;-61
2021/12/19 01:27:49;;;;;;;8.57;5.35;;;;;;;;;;21082331;28;20101;-56
2021/12/19 01:37:51;;;;;;;8.40;5.55;;;;;;;;;;21081100;28;20075;-56
2021/12/19 01:47:56;;;;;;;15.05;5.43;;;;;;;;;;21080445;28;20059;-56
2021/12/19 01:57:58;;;;;;;7.78;4.88;;;;;;;;;;21080841;28;20052;-61
2021/12/19 02:08:00;;;;;;;7.55;4.72;;;;;;;;;;21080280;28;20050;-60
2021/12/19 02:18:16;;;;;;;9.65;4.90;;;;;;;;;;21078527;28;20056;-61
2021/12/19 02:28:20;;;;;;;7.07;4.90;;;;;;;;;;21079855;28;20044;-56
2021/12/19 02:48:49;;;;;;;;;;;;;;;;;;21077912;28;20063;-56
2021/12/19 02:58:54;;;;;;;6.13;4.88;;;;;;;;;;21077865;28;19965;-56
2021/12/19 03:09:03;;;;;;;8.65;5.07;;;;;;;;;;21077881;28;20474;-62
2021/12/19 03:19:08;;;;;;;7.28;4.80;;;;;;;;;;21075980;28;20135;-55
2021/12/19 03:29:12;;;;;;;7.70;4.77;;;;;;;;;;21087422;28;20051;-59
2021/12/19 03:39:37;;;;;;;7.18;4.63;;;;;;;;;;21091060;28;20471;-56
2021/12/19 03:49:59;;;;;;;9.00;5.20;;;;;;;;;;21089343;28;20048;-56
2021/12/19 04:00:24;;;;;;;8.75;5.18;;;;;;;;;;21090509;28;20508;-54
2021/12/19 04:10:46;;;;;;;10.10;4.37;;;;;;;;;;21089347;28;20078;-58
2021/12/19 04:21:09;;;;;;;8.07;5.25;;;;;;;;;;21087575;28;20665;-55
2021/12/19 04:31:31;;;;;;;7.35;4.53;;;;;;;;;;21087468;28;20063;-55
2021/12/19 05:02:40;;;;;;;7.82;4.50;;;;;;;;;;21084584;28;20048;-57
2021/12/19 05:23:50;;;;;;;9.85;5.70;;;;;;;;;;21082724;28;20056;-55
2021/12/19 05:33:46;;;;;;;8.52;5.20;;;;;;;;;;21080021;28;20047;-56
2021/12/19 05:54:32;;;;;;;8.73;4.40;;;;;;;;;;20659436;28;20058;-55
2021/12/19 06:04:34;;;;;;;7.13;5.05;;;;;;;;;;20659213;28;20050;-55
2021/12/19 06:14:36;;;;;;;7.60;5.28;;;;;;;;;;20658339;28;20073;-54
2021/12/19 06:24:38;;;;;;;9.07;4.80;;;;;;;;;;20868948;28;20071;-60
2021/12/19 06:34:41;;;;;;;8.85;4.70;;;;;;;;;;21078268;28;20135;-59
2021/12/19 06:44:45;;;;;;;7.07;4.13;;;;;;;;;;21077919;28;20176;-63
2021/12/19 06:54:50;;;;;;;6.00;4.13;;;;;;;;;;21077250;28;20143;-60
2021/12/19 07:05:08;;;;;;;6.57;4.40;;;;;;;;;;21090976;28;20070;-61
2021/12/19 07:15:18;;;;;;;7.70;4.38;;;;;;;;;;21092510;28;20104;-59
2021/12/19 07:25:40;;;;;;;7.55;4.53;;;;;;;;;;21091906;28;20044;-56
2021/12/19 07:35:52;;;;;;;9.57;4.30;;;;;;;;;;21090900;28;20052;-61
2021/12/19 07:46:11;;;;;;;5.93;4.07;;;;;;;;;;21091352;28;20123;-61
2021/12/19 07:56:32;;;;;;;6.30;4.25;;;;;;;;;;21089376;28;20055;-60
2021/12/19 08:06:38;;;;;;;7.82;5.32;;;;;;;;;;21088733;28;20048;-61
2021/12/19 08:16:54;;;;;;;8.55;4.70;;;;;;;;;;21087284;28;20079;-61
2021/12/19 08:27:16;;;;;;;7.43;4.57;;;;;;;;;;21088129;28;20040;-58
2021/12/19 08:37:38;;;;;;;11.80;3.88;;;;;;;;;;21086056;28;20091;-56
2021/12/19 08:48:00;;;;;;;6.68;4.05;;;;;;;;;;21085389;28;20048;-55
2021/12/19 08:58:14;;;;;;;7.60;4.63;;;;;;;;;;21084407;28;20052;-61
2021/12/19 09:08:24;;;;;;;8.05;4.85;;;;;;;;;;21083432;28;20048;-61
2021/12/19 09:18:41;;;;;;;8.32;4.60;;;;;;;;;;21082024;28;20052;-60
2021/12/19 09:28:51;;;;;;;10.88;4.30;;;;;;;;;;21081687;28;20417;-62
2021/12/19 09:39:01;;;;;;;7.65;4.95;;;;;;;;;;21082615;28;20081;-64
2021/12/19 09:49:16;;;;;;;6.88;4.82;;;;;;;;;;21079920;28;20446;-61
2021/12/19 09:59:29;;;;;;;8.43;4.50;;;;;;;;;;21078893;28;20498;-63
2021/12/19 10:10:02;;;;;;;6.80;3.70;;;;;;;;;;21078993;28;20075;-62
2021/12/19 10:20:13;;;;;;;6.55;3.78;;;;;;;;;;21077539;28;20040;-60
2021/12/19 10:30:18;;;;;;;8.95;3.85;;;;;;;;;;21077029;28;20048;-62
2021/12/19 10:40:29;;;;;;;8.60;3.83;;;;;;;;;;21090812;28;20052;-61
2021/12/19 10:50:53;;;;;;;7.95;3.72;;;;;;;;;;21094632;28;20108;-59
2021/12/19 11:01:28;;;;;;;7.50;4.40;;;;;;;;;;21093095;28;20395;-60
2021/12/19 11:11:39;;;;;;;13.48;4.47;;;;;;;;;;21091940;28;20079;-60
2021/12/19 11:21:42;;;;;;;5.78;3.90;;;;;;;;;;21090351;28;20040;-60
2021/12/19 11:31:46;;;;;;;7.53;4.32;;;;;;;;;;21091508;28;20056;-62
2021/12/19 11:42:06;;;;;;;5.75;4.15;;;;;;;;;;21088717;28;20044;-61
2021/12/19 11:52:27;;;;;;;7.00;4.35;;;;;;;;;;21087398;28;20060;-62
2021/12/19 12:02:31;;;;;;;9.90;4.63;;;;;;;;;;21087199;28;20044;-55
2021/12/19 12:12:49;;;;;;;6.93;5.03;;;;;;;;;;21085922;28;20056;-55
2021/12/19 12:22:55;;;;;;;6.90;4.47;;;;;;;;;;21084928;28;20051;-57
2021/12/19 12:33:01;;;;;;;7.00;4.43;;;;;;;;;;21067762;28;20391;-64
2021/12/19 12:43:09;;;;;;;4.80;3.80;;;;;;;;;;21084439;28;20052;-57
2021/12/19 12:53:27;;;;;;;5.50;3.28;;;;;;;;;;21082694;28;20052;-57
2021/12/19 13:03:36;;;;;;;8.70;6.03;;;;;;;;;;21082576;28;20117;-65
2021/12/19 13:13:43;;;;;;;7.53;4.40;;;;;;;;;;21082847;28;20052;-63
2021/12/19 13:23:46;;;;;;;5.60;4.35;;;;;;;;;;21081661;28;20079;-60
2021/12/19 13:33:48;;;;;;;9.20;4.82;;;;;;;;;;21080931;28;20055;-59
2021/12/19 13:43:57;;;;;;;7.82;3.28;;;;;;;;;;21080469;28;20040;-60
2021/12/19 13:54:03;;;;;;;4.90;3.65;;;;;;;;;;21081048;28;20056;-56
2021/12/19 14:04:20;;;;;;;8.02;3.50;;;;;;;;;;21079280;28;20046;-59
2021/12/19 14:24:48;;;;;;;7.15;4.28;;;;;;;;;;21078111;28;20044;-56
2021/12/19 14:34:54;;;;;;;6.53;3.97;;;;;;;;;;21077165;28;20135;-58
2021/12/19 14:44:58;;;;;;;7.10;4.35;;;;;;;;;;21078110;28;20059;-61
2021/12/19 14:55:10;;;;;;;6.05;3.83;;;;;;;;;;21076589;28;20417;-56
2021/12/19 15:05:13;;;;;;;6.43;3.65;;;;;;;;;;21077348;28;20402;-56
2021/12/19 15:15:15;;;;;;;7.43;4.57;;;;;;;;;;21076964;28;20052;-56
2021/12/19 15:25:18;;;;;;;9.77;3.72;;;;;;;;;;21086126;28;20068;-57
2021/12/19 15:35:24;;;;;;;7.35;3.50;;;;;;;;;;21090058;28;20052;-56
2021/12/19 15:45:26;;;;;;;7.63;3.80;;;;;;;;;;21089641;28;20048;-57
2021/12/19 15:55:28;;;;;;;6.25;5.00;;;;;;;;;;21088560;28;20059;-56
2021/12/19 16:05:35;;;;;;;6.40;3.45;;;;;;;;;;21089512;28;20044;-55
2021/12/19 16:15:42;;;;;;;5.40;3.22;;;;;;;;;;21087317;28;20056;-58
2021/12/19 16:25:44;;;;;;;3.95;2.90;;;;;;;;;;21086783;28;20044;-57
2021/12/19 16:35:47;;;;;;;9.10;4.10;;;;;;;;;;21085942;28;20048;-64
2021/12/19 16:45:50;;;;;;;13.73;9.93;;;;;;;;;;21085406;28;20156;-56
2021/12/19 16:55:53;;;;;;;8.48;4.68;;;;;;;;;;21066478;28;20201;-55
2021/12/19 17:05:56;;;;;;;8.23;3.90;;;;;;;;;;21083439;28;20146;-55
2021/12/19 17:15:59;;;;;;;16.77;9.15;;;;;;;;;;21082416;28;20052;-64
2021/12/19 17:26:05;;;;;;;7.70;4.05;;;;;;;;;;21082046;28;20139;-62
2021/12/19 17:36:08;;;;;;;10.93;4.53;;;;;;;;;;21081875;28;20055;-64
2021/12/19 17:46:11;;;;;;;11.43;5.07;;;;;;;;;;21079980;28;20138;-64
2021/12/19 17:56:14;;;;;;;7.95;4.93;;;;;;;;;;21079604;28;20629;-57
2021/12/19 18:06:25;;;;;;;10.38;5.13;;;;;;;;;;21079381;28;20451;-59
2021/12/19 18:16:29;;;;;;;;;;;;;;;;;;21078600;28;20048;-64
2021/12/19 18:26:31;;;;;;;8.88;5.78;;;;;;;;;;21078718;28;19919;-65
2021/12/19 18:36:39;;;;;;;12.27;5.87;;;;;;;;;;21078073;28;20075;-66
2021/12/19 18:56:53;;;;;;;11.23;7.60;;;;;;;;;;21082761;28;20052;-64
2021/12/19 19:07:00;;;;;;;11.20;7.18;;;;;;;;;;21093113;28;20047;-64
2021/12/19 19:17:07;;;;;;;27.63;14.93;;;;;;;;;;21092395;28;20047;-59
2021/12/19 19:27:11;;;;;;;13.27;9.65;;;;;;;;;;21092116;28;20114;-59
2021/12/19 19:37:13;;;;;;;17.17;12.55;;;;;;;;;;21090624;28;20048;-63
2021/12/19 19:57:43;;;;;;;12.77;7.77;;;;;;;;;;21089096;28;20086;-57
2021/12/19 20:07:45;;;;;;;14.15;8.45;;;;;;;;;;21088984;28;20501;-64
2021/12/19 20:17:47;;;;;;;13.25;8.55;;;;;;;;;;21087554;28;20414;-63
2021/12/19 20:27:55;;;;;;;18.75;12.13;;;;;;;;;;21089017;28;20554;-62
2021/12/19 20:37:59;;;;;;;17.90;9.65;;;;;;;;;;21086629;28;20044;-65
2021/12/19 20:48:04;;;;;;;14.20;8.63;;;;;;;;;;21086393;28;20055;-59
2021/12/19 20:58:08;;;;;;;19.80;11.82;;;;;;;;;;21086707;28;20094;-65
2021/12/19 21:08:10;;;;;;;15.20;8.85;;;;;;;;;;21084829;28;20098;-63
2021/12/19 21:28:33;;;;;;;16.20;10.27;;;;;;;;;;21082793;28;20134;-58
2021/12/19 21:38:48;;;;;;;13.48;8.73;;;;;;;;;;21082754;28;20096;-62
2021/12/19 21:48:57;;;;;;;21.33;11.95;;;;;;;;;;21081950;28;20044;-58
2021/12/19 21:58:59;;;;;;;24.67;12.87;;;;;;;;;;21081794;28;20048;-62
2021/12/19 22:09:02;;;;;;;23.80;12.40;;;;;;;;;;21080335;28;20045;-57
2021/12/19 22:19:06;;;;;;;12.45;7.55;;;;;;;;;;21079265;28;20071;-62
2021/12/19 22:29:10;;;;;;;10.00;7.45;;;;;;;;;;21079450;28;20048;-57
2021/12/19 22:39:13;;;;;;;12.32;6.80;;;;;;;;;;21080145;28;20079;-57
2021/12/19 22:49:15;;;;;;;11.25;6.82;;;;;;;;;;21091286;28;20048;-64
2021/12/19 22:59:17;;;;;;;10.98;6.57;;;;;;;;;;21080744;28;20077;-60
2021/12/19 23:09:19;;;;;;;11.88;7.10;;;;;;;;;;21078640;28;20048;-60
2021/12/19 23:19:22;;;;;;;10.63;7.32;;;;;;;;;;21076984;28;20051;-58
2021/12/19 23:29:25;;;;;;;15.95;10.15;;;;;;;;;;21077329;28;20134;-60
2021/12/19 23:39:41;;;;;;;14.00;8.15;;;;;;;;;;21076477;28;20131;-65
2021/12/19 23:49:43;;;;;;;10.70;8.40;;;;;;;;;;21090992;28;20413;-57
2021/12/19 23:59:45;;;;;;;14.27;8.10;;;;;;;;;;21090920;28;20048;-59
